Atlantic Municipal Airport
Wednesday 6:55 PM
Weather Sunny
Temperature 90°
Dew Point 64°
Feels Like 91°
Relative Humidity 43
%
Visibility 10
mi
Pressure 1012.9
mb
Wind Direction SSE
Wind Speed 10
mph
Last Hour Precip 0.00
"
KAIO 162355Z AUTO 16009G19KT 10SM CLR 32/18 A2991 RMK AO2

Recent Observations

Time Present Weather Temp DP Feels RH% Vsby Pressure Ceiling Direction Speed Gust 1h Precip
6:55PM
VFR
90° 64° 91° 43
%
10
mi
1012.9
mb
None SSE 10
mph
22
mph
0.00"
KAIO 162355Z AUTO 16009G19KT 10SM CLR 32/18 A2991 RMK AO2
6:35PM
VFR
90° 64° 91° 43
%
10
mi
1012.9
mb
None S 15
mph
21
mph
0.00"
KAIO 162335Z AUTO 17013G18KT 10SM CLR 32/18 A2991 RMK AO2
6:15PM
VFR
90° 63° 90° 41
%
10
mi
1013.2
mb
None S 14
mph
0.00"
KAIO 162315Z AUTO 17012KT 10SM CLR 32/17 A2992 RMK AO2
5:55PM
VFR
91° 63° 92° 38
%
10
mi
1013.2
mb
None S 17
mph
0.00"
KAIO 162255Z AUTO 19015KT 10SM CLR 33/17 A2992 RMK AO2
5:35PM
VFR
91° 63° 92° 38
%
10
mi
1013.5
mb
None S 15
mph
22
mph
0.00"
KAIO 162235Z AUTO 18013G19KT 10SM CLR 33/17 A2993 RMK AO2
5:15PM
VFR
91° 63° 92° 38
%
9
mi
1013.9
mb
None S 14
mph
0.00"
KAIO 162215Z AUTO 18012KT 9SM CLR 33/17 A2994 RMK AO2
4:55PM
VFR
91° 63° 92° 38
%
9
mi
1014.2
mb
None SSE 12
mph
18
mph
0.00"
KAIO 162155Z AUTO 16010G16KT 9SM CLR 33/17 A2995 RMK AO2
4:35PM
VFR
91° 63° 92° 38
%
9
mi
1014.6
mb
None S 10
mph
16
mph
0.00"
KAIO 162135Z AUTO 17009G14KT 9SM CLR 33/17 A2996 RMK AO2
4:15PM
VFR
91° 61° 91° 36
%
10
mi
1014.6
mb
None SSE 14
mph
22
mph
0.00"
KAIO 162115Z AUTO 15012G19KT 10SM CLR 33/16 A2996 RMK AO2
3:55PM
VFR
91° 61° 91° 36
%
10
mi
1014.6
mb
None S 13
mph
20
mph
0.00"
KAIO 162055Z AUTO 17011G17KT 10SM CLR 33/16 A2996 RMK AO2
3:35PM
VFR
90° 61° 90° 38
%
10
mi
1014.9
mb
None SSE 9
mph
21
mph
0.00"
KAIO 162035Z AUTO 16008G18KT 10SM CLR 32/16 A2997 RMK AO2
3:15PM
VFR
91° 61° 91° 36
%
10
mi
1014.9
mb
None S 13
mph
0.00"
KAIO 162015Z AUTO 17011KT 10SM CLR 33/16 A2997 RMK AO2
2:55PM
VFR
91° 61° 91° 36
%
10
mi
1014.9
mb
None S 15
mph
0.00"
KAIO 161955Z AUTO 18013KT 10SM CLR 33/16 A2997 RMK AO2
2:35PM
VFR
90° 61° 90° 38
%
10
mi
1015.2
mb
None SSE 13
mph
0.00"
KAIO 161935Z AUTO 16011KT 10SM CLR 32/16 A2998 RMK AO2
2:15PM
VFR
90° 61° 90° 38
%
10
mi
1015.6
mb
None SSE 14
mph
0.00"
KAIO 161915Z AUTO 16012KT 10SM CLR 32/16 A2999 RMK AO2
1:55PM
VFR
90° 59° 89° 36
%
10
mi
1015.6
mb
None S 14
mph
20
mph
0.00"
KAIO 161855Z AUTO 17012G17KT 10SM CLR 32/15 A2999 RMK AO2
1:35PM
VFR
90° 59° 89° 36
%
10
mi
1015.9
mb
None S 12
mph
20
mph
0.00"
KAIO 161835Z AUTO 17010G17KT 10SM CLR 32/15 A3000 RMK AO2
1:15PM
VFR
90° 57° 88° 34
%
10
mi
1016.3
mb
None S 16
mph
22
mph
0.00"
KAIO 161815Z AUTO 17014G19KT 10SM CLR 32/14 A3001 RMK AO2
12:55PM
VFR
88° 57° 87° 36
%
10
mi
1016.3
mb
None SSE 14
mph
0.00"
KAIO 161755Z AUTO 16012KT 10SM CLR 31/14 A3001 RMK AO2
12:35PM
VFR
88° 57° 87° 36
%
9
mi
1016.6
mb
None SSE 14
mph
0.00"
KAIO 161735Z AUTO 16012KT 9SM CLR 31/14 A3002 RMK AO2
Click here to show this page without METARs/TAFs included